Time;durP1;ratioP1;P1;durP2;ratioP2;P2;SDS_P1;SDS_P2;PMS_P1;PMS_P2;Temp;Humidity;BMP_temperature;BMP_pressure;BME280_temperature;BME280_humidity;BME280_pressure;Samples;Min_cycle;Max_cycle;Signal;HPM_P1;HPM_P2
2021/03/25 00:00:07;;;;;;;8.50;6.77;;;10.10;99.90;;;;;;5072777;28;20202;-72
2021/03/25 00:02:33;;;;;;;9.73;6.87;;;10.00;99.90;;;;;;5072907;28;20214;-73
2021/03/25 00:04:59;;;;;;;9.97;7.07;;;9.90;99.90;;;;;;5072890;28;20202;-72
2021/03/25 00:07:26;;;;;;;12.90;7.73;;;9.90;99.90;;;;;;5072508;28;20640;-74
2021/03/25 00:09:52;;;;;;;11.73;7.93;;;9.90;99.90;;;;;;5072632;28;20264;-73
2021/03/25 00:12:20;;;;;;;12.83;8.37;;;9.90;99.90;;;;;;5072254;28;20202;-75
2021/03/25 00:14:46;;;;;;;11.27;6.80;;;9.80;99.90;;;;;;5072498;28;20210;-72
2021/03/25 00:17:13;;;;;;;14.90;8.13;;;9.70;99.90;;;;;;5071895;28;20230;-75
2021/03/25 00:19:40;;;;;;;10.13;8.70;;;9.70;99.90;;;;;;5072487;28;20228;-72
2021/03/25 00:22:06;;;;;;;13.73;7.20;;;9.70;99.90;;;;;;5071708;28;20305;-74
2021/03/25 00:24:33;;;;;;;11.63;8.20;;;9.80;99.90;;;;;;5071443;28;20678;-73
2021/03/25 00:26:59;;;;;;;15.80;7.70;;;9.70;99.90;;;;;;5072885;28;20217;-73
2021/03/25 00:29:26;;;;;;;10.00;7.83;;;9.80;99.90;;;;;;5071862;28;20210;-73
2021/03/25 00:31:53;;;;;;;11.23;7.60;;;9.90;99.90;;;;;;5072126;28;20206;-74
2021/03/25 00:34:19;;;;;;;11.47;7.97;;;9.90;99.90;;;;;;5071853;28;20259;-74
2021/03/25 00:36:46;;;;;;;13.53;8.07;;;9.90;99.90;;;;;;5072375;28;20295;-74
2021/03/25 00:39:13;;;;;;;16.40;8.80;;;9.80;99.90;;;;;;5071586;28;20209;-72
2021/03/25 00:41:40;;;;;;;12.27;7.60;;;9.80;99.90;;;;;;5071993;28;20202;-75
2021/03/25 00:44:07;;;;;;;10.43;8.57;;;9.70;99.90;;;;;;5071433;28;20206;-74
2021/03/25 00:46:35;;;;;;;13.40;7.37;;;9.60;99.90;;;;;;5071980;28;20264;-72
2021/03/25 00:49:01;;;;;;;14.13;8.27;;;9.50;99.90;;;;;;5072173;28;20598;-72
2021/03/25 00:51:28;;;;;;;21.50;8.07;;;9.40;99.90;;;;;;5071484;28;20209;-74
2021/03/25 00:53:55;;;;;;;13.73;7.93;;;9.40;99.90;;;;;;5071365;28;20658;-74
2021/03/25 00:56:21;;;;;;;15.57;7.47;;;9.40;99.90;;;;;;5071046;28;20211;-72
2021/03/25 00:58:47;;;;;;;11.63;7.87;;;9.40;99.90;;;;;;5071610;28;20743;-75
2021/03/25 01:01:14;;;;;;;11.50;7.60;;;9.30;99.90;;;;;;5070924;28;20214;-72
2021/03/25 01:03:41;;;;;;;12.93;7.57;;;9.20;99.90;;;;;;5072049;28;20263;-75
2021/03/25 01:06:08;;;;;;;13.60;8.13;;;9.20;99.90;;;;;;5070935;28;20669;-74
2021/03/25 01:08:35;;;;;;;13.93;8.00;;;9.10;99.90;;;;;;5071199;28;20210;-73
2021/03/25 01:11:06;;;;;;;16.67;7.83;;;9.00;99.90;;;;;;5071381;28;20669;-73
2021/03/25 01:13:35;;;;;;;15.57;7.90;;;9.10;99.90;;;;;;5071434;28;20198;-73
2021/03/25 01:16:02;;;;;;;12.10;6.90;;;9.20;99.90;;;;;;5071494;28;20210;-73
2021/03/25 01:18:29;;;;;;;11.80;7.83;;;9.10;99.90;;;;;;5071529;28;20230;-73
2021/03/25 01:20:57;;;;;;;11.73;8.07;;;9.10;99.90;;;;;;5071431;28;20205;-73
2021/03/25 01:23:25;;;;;;;9.07;6.10;;;9.20;99.90;;;;;;5070734;28;20225;-73
2021/03/25 01:25:51;;;;;;;12.50;7.10;;;9.20;99.90;;;;;;5071128;28;20213;-73
2021/03/25 01:28:18;;;;;;;8.67;7.53;;;9.20;99.90;;;;;;5070700;28;20206;-73
2021/03/25 01:30:47;;;;;;;12.77;8.20;;;9.10;99.90;;;;;;5070830;28;20216;-72
2021/03/25 01:33:16;;;;;;;10.13;6.83;;;9.00;99.90;;;;;;5070932;28;20251;-73
2021/03/25 01:35:43;;;;;;;12.87;6.43;;;8.90;99.90;;;;;;5070723;28;20251;-73
2021/03/25 01:38:12;;;;;;;12.43;5.90;;;8.90;99.90;;;;;;5070446;28;20226;-73
2021/03/25 01:40:41;;;;;;;8.57;6.27;;;8.90;99.90;;;;;;5070791;28;20593;-72
2021/03/25 01:43:16;;;;;;;13.93;5.53;;;8.90;99.90;;;;;;5070565;28;20212;-73
2021/03/25 01:45:48;;;;;;;9.40;6.33;;;9.00;99.90;;;;;;5070880;28;20213;-72
2021/03/25 01:48:16;;;;;;;12.00;6.03;;;8.90;99.90;;;;;;5056758;28;20582;-74
2021/03/25 01:50:43;;;;;;;8.93;4.97;;;8.90;99.90;;;;;;5070883;28;20206;-71
2021/03/25 01:53:55;;;;;;;14.90;6.33;;;9.00;99.90;;;;;;5070094;28;20275;-74
2021/03/25 01:56:35;;;;;;;8.00;7.00;;;9.00;99.90;;;;;;5070097;28;20205;-71
2021/03/25 01:59:44;;;;;;;10.60;6.13;;;8.90;99.90;;;;;;5070892;28;20206;-72
2021/03/25 02:02:16;;;;;;;11.13;6.47;;;8.70;99.90;;;;;;5028318;28;20303;-74
2021/03/25 02:04:57;;;;;;;9.87;7.20;;;8.70;99.90;;;;;;5065703;28;20210;-72
2021/03/25 02:07:33;;;;;;;12.53;6.93;;;8.80;99.90;;;;;;5070108;28;20259;-70
2021/03/25 02:10:06;;;;;;;11.87;5.60;;;8.80;99.90;;;;;;5070471;28;20284;-75
2021/03/25 02:12:40;;;;;;;7.03;6.17;;;8.70;99.90;;;;;;5070546;28;20206;-72
2021/03/25 02:15:11;;;;;;;11.83;6.70;;;8.60;99.90;;;;;;5070194;28;20581;-74
2021/03/25 02:17:41;;;;;;;10.73;7.10;;;8.50;99.90;;;;;;5070127;28;20222;-73
2021/03/25 02:20:39;;;;;;;12.27;6.97;;;8.40;99.90;;;;;;5070063;28;20218;-72
2021/03/25 02:23:39;;;;;;;7.97;5.57;;;8.50;99.90;;;;;;5070168;28;20206;-70
2021/03/25 02:26:11;;;;;;;13.77;6.97;;;8.30;99.90;;;;;;5069607;28;20199;-72
2021/03/25 02:29:00;;;;;;;11.33;6.93;;;8.40;99.90;;;;;;5068410;28;20210;-73
2021/03/25 02:31:31;;;;;;;7.37;6.00;;;8.30;99.90;;;;;;5070201;28;20202;-73
2021/03/25 02:34:01;;;;;;;11.33;6.47;;;8.30;99.90;;;;;;5070517;28;20206;-74
2021/03/25 02:36:32;;;;;;;12.70;7.00;;;8.30;99.90;;;;;;5069780;28;20199;-74
2021/03/25 02:39:04;;;;;;;9.30;6.53;;;8.10;99.90;;;;;;5057116;28;20678;-71
2021/03/25 02:41:36;;;;;;;8.83;6.93;;;8.20;99.90;;;;;;5070630;28;20209;-74
2021/03/25 02:44:09;;;;;;;12.23;7.07;;;8.20;99.90;;;;;;5070019;28;20665;-72
2021/03/25 02:46:40;;;;;;;12.57;6.97;;;8.10;99.90;;;;;;5071344;28;20590;-74
2021/03/25 02:49:10;;;;;;;12.33;8.20;;;8.00;99.90;;;;;;5073702;28;20217;-74
2021/03/25 02:51:39;;;;;;;15.10;7.27;;;8.10;99.90;;;;;;5073951;28;20213;-73
2021/03/25 02:54:06;;;;;;;11.03;6.67;;;8.20;99.90;;;;;;5073714;28;20202;-73
2021/03/25 02:56:38;;;;;;;13.10;6.70;;;8.10;99.90;;;;;;5074020;28;20209;-73
2021/03/25 02:59:09;;;;;;;12.80;6.93;;;8.00;99.90;;;;;;5073668;28;20615;-72
2021/03/25 03:01:40;;;;;;;15.30;6.93;;;8.00;99.90;;;;;;5073815;28;20201;-73
2021/03/25 03:04:10;;;;;;;11.97;6.90;;;8.00;99.90;;;;;;5072972;28;20210;-73
2021/03/25 03:06:42;;;;;;;8.23;6.57;;;8.00;99.90;;;;;;5074046;28;20213;-73
2021/03/25 03:09:13;;;;;;;10.50;6.23;;;8.00;99.90;;;;;;5073433;28;20210;-73
2021/03/25 03:11:43;;;;;;;12.97;7.00;;;8.10;99.90;;;;;;5073879;28;20623;-73
2021/03/25 03:14:13;;;;;;;11.33;7.40;;;8.00;99.90;;;;;;5073318;28;20217;-74
2021/03/25 03:16:45;;;;;;;12.77;6.80;;;8.00;99.90;;;;;;5073689;28;20202;-75
2021/03/25 03:19:17;;;;;;;10.97;7.83;;;8.10;99.90;;;;;;5072802;28;20202;-74
2021/03/25 03:21:47;;;;;;;9.53;6.43;;;8.20;99.90;;;;;;5073595;28;20604;-73
2021/03/25 03:24:13;;;;;;;13.90;7.47;;;8.10;99.90;;;;;;5072974;28;20266;-73
2021/03/25 03:26:46;;;;;;;11.20;6.97;;;8.10;99.90;;;;;;5073711;28;20264;-74
2021/03/25 03:29:14;;;;;;;10.83;6.70;;;8.10;99.90;;;;;;5073061;28;20692;-73
2021/03/25 03:31:46;;;;;;;10.50;6.67;;;8.10;99.90;;;;;;5073586;28;20210;-73
2021/03/25 03:34:17;;;;;;;10.73;7.10;;;8.10;99.90;;;;;;5072819;28;20654;-73
2021/03/25 03:36:47;;;;;;;14.23;8.00;;;8.10;99.90;;;;;;5072987;28;20210;-72
2021/03/25 03:39:19;;;;;;;10.33;7.37;;;7.90;99.90;;;;;;5073005;28;20300;-73
2021/03/25 03:41:49;;;;;;;10.37;7.23;;;7.90;99.90;;;;;;5072763;28;20593;-73
2021/03/25 03:44:22;;;;;;;11.23;7.10;;;8.00;99.90;;;;;;5072963;28;20205;-75
2021/03/25 03:46:51;;;;;;;11.30;6.40;;;8.00;99.90;;;;;;5073008;28;20210;-74
2021/03/25 03:49:22;;;;;;;11.23;7.17;;;8.00;99.90;;;;;;5072577;28;20202;-73
2021/03/25 03:51:54;;;;;;;8.93;6.60;;;8.00;99.90;;;;;;5072755;28;20209;-72
2021/03/25 03:54:21;;;;;;;14.93;7.40;;;7.90;99.90;;;;;;5072797;28;20210;-71
2021/03/25 03:56:58;;;;;;;13.47;6.57;;;7.80;99.90;;;;;;5072833;28;20206;-72
2021/03/25 03:59:29;;;;;;;8.47;7.03;;;7.80;99.90;;;;;;5072560;28;20214;-71
2021/03/25 04:02:04;;;;;;;12.10;7.30;;;7.80;99.90;;;;;;5072851;28;20212;-74
2021/03/25 04:04:35;;;;;;;12.33;7.83;;;8.10;99.90;;;;;;5073059;28;20260;-75
2021/03/25 04:07:07;;;;;;;13.07;7.27;;;8.20;99.90;;;;;;5072362;28;20670;-71
2021/03/25 04:09:38;;;;;;;12.70;7.17;;;8.10;99.90;;;;;;5072935;28;20233;-73
2021/03/25 04:12:11;;;;;;;11.83;6.80;;;8.10;99.90;;;;;;5072226;28;20210;-72
2021/03/25 04:14:43;;;;;;;9.67;6.30;;;8.10;99.90;;;;;;5072768;28;20260;-75
2021/03/25 04:17:16;;;;;;;9.27;8.13;;;8.10;99.90;;;;;;5071429;28;20711;-74
2021/03/25 04:19:45;;;;;;;10.90;7.57;;;8.00;99.90;;;;;;5072790;28;20209;-74
2021/03/25 04:22:16;;;;;;;14.07;7.03;;;8.00;99.90;;;;;;5072123;28;20202;-70
2021/03/25 04:24:47;;;;;;;11.17;7.60;;;7.90;99.90;;;;;;5072281;28;20209;-73
2021/03/25 04:27:19;;;;;;;13.53;8.70;;;8.00;99.90;;;;;;5071937;28;20214;-71
2021/03/25 04:29:50;;;;;;;10.33;8.27;;;8.20;99.90;;;;;;5059346;28;20213;-72
2021/03/25 04:32:18;;;;;;;10.60;7.67;;;8.40;99.90;;;;;;5071860;28;20202;-70
2021/03/25 04:34:47;;;;;;;11.53;7.73;;;8.40;99.90;;;;;;5072038;28;20202;-72
2021/03/25 04:37:14;;;;;;;12.23;7.17;;;8.50;99.90;;;;;;5071956;28;20241;-70
2021/03/25 04:39:41;;;;;;;21.50;9.03;;;8.50;99.90;;;;;;5071944;28;20210;-73
2021/03/25 04:42:09;;;;;;;14.03;6.90;;;8.50;99.90;;;;;;5071430;28;20213;-69
2021/03/25 04:44:39;;;;;;;9.33;7.70;;;8.50;99.90;;;;;;5072234;28;20206;-72
2021/03/25 04:47:14;;;;;;;12.73;9.37;;;8.50;99.90;;;;;;5071116;28;20218;-72
2021/03/25 04:49:44;;;;;;;14.50;9.77;;;8.20;99.90;;;;;;5072110;28;20206;-72
2021/03/25 04:52:17;;;;;;;13.40;9.20;;;8.30;99.90;;;;;;5071415;28;20206;-73
2021/03/25 04:54:44;;;;;;;15.30;9.07;;;8.30;99.90;;;;;;5071949;28;20217;-72
2021/03/25 04:57:22;;;;;;;11.37;8.90;;;8.40;99.90;;;;;;5071183;28;20226;-73
2021/03/25 04:59:49;;;;;;;12.33;7.10;;;8.50;99.90;;;;;;5071718;28;20620;-73
2021/03/25 05:02:16;;;;;;;10.37;8.00;;;8.60;99.90;;;;;;5070702;28;20658;-74
2021/03/25 05:04:45;;;;;;;11.03;8.73;;;8.60;99.90;;;;;;5071827;28;20279;-74
2021/03/25 05:07:18;;;;;;;16.80;9.80;;;8.60;99.90;;;;;;5070786;28;20799;-70
2021/03/25 05:09:44;;;;;;;18.37;10.17;;;8.40;99.90;;;;;;5071364;28;20214;-72
2021/03/25 05:12:15;;;;;;;13.87;9.60;;;8.40;99.90;;;;;;5071214;28;20622;-75
2021/03/25 05:14:43;;;;;;;12.93;9.17;;;8.40;99.90;;;;;;5071391;28;20209;-73
2021/03/25 05:17:35;;;;;;;12.87;8.83;;;8.50;99.90;;;;;;5070655;28;20234;-74
2021/03/25 05:20:14;;;;;;;14.77;9.17;;;8.60;99.90;;;;;;5069174;28;20606;-69
2021/03/25 05:22:51;;;;;;;11.13;9.57;;;8.80;99.90;;;;;;5064670;28;20202;-74
2021/03/25 05:25:23;;;;;;;14.37;9.43;;;8.90;99.90;;;;;;5070340;28;20206;-74
2021/03/25 05:27:54;;;;;;;10.10;7.77;;;8.90;99.90;;;;;;5070837;28;20198;-71
2021/03/25 05:30:24;;;;;;;15.03;9.47;;;9.00;99.90;;;;;;5070309;28;20263;-72
2021/03/25 05:32:53;;;;;;;12.07;8.40;;;9.00;99.90;;;;;;5070683;28;20670;-74
2021/03/25 05:35:23;;;;;;;12.80;9.80;;;9.10;99.90;;;;;;5070580;28;20210;-74
2021/03/25 05:37:50;;;;;;;16.70;10.17;;;8.90;99.90;;;;;;5070888;28;20214;-71
2021/03/25 05:40:22;;;;;;;14.17;9.33;;;8.90;99.90;;;;;;5068834;28;20210;-74
2021/03/25 05:42:57;;;;;;;12.80;9.03;;;8.90;99.90;;;;;;5069013;28;20202;-73
2021/03/25 05:45:33;;;;;;;12.13;7.87;;;9.00;99.90;;;;;;5069926;28;20205;-71
2021/03/25 05:48:31;;;;;;;15.67;10.17;;;9.10;99.90;;;;;;5070692;28;20210;-74
2021/03/25 05:51:09;;;;;;;14.27;9.00;;;9.10;99.90;;;;;;5062037;28;20283;-71
2021/03/25 05:53:50;;;;;;;17.97;9.73;;;9.10;99.90;;;;;;5070583;28;20617;-72
2021/03/25 05:56:26;;;;;;;11.63;8.40;;;9.10;99.90;;;;;;5069984;28;20205;-72
2021/03/25 05:58:56;;;;;;;13.03;9.90;;;9.20;99.90;;;;;;5070102;28;20244;-71
2021/03/25 06:01:57;;;;;;;11.37;8.57;;;9.20;99.90;;;;;;5069665;28;20214;-74
2021/03/25 06:04:27;;;;;;;15.07;9.67;;;9.30;99.90;;;;;;5059341;28;20226;-70
2021/03/25 06:07:29;;;;;;;13.93;9.43;;;9.30;99.90;;;;;;5069297;28;20574;-75
2021/03/25 06:10:05;;;;;;;12.67;8.67;;;9.40;99.90;;;;;;5070416;28;20209;-70
2021/03/25 06:12:47;;;;;;;15.10;9.57;;;9.40;99.90;;;;;;5070257;28;20202;-69
2021/03/25 06:15:37;;;;;;;11.60;8.90;;;9.40;99.90;;;;;;5069878;28;20206;-72
2021/03/25 06:18:16;;;;;;;13.60;8.27;;;9.30;99.90;;;;;;5059748;28;20226;-69
2021/03/25 06:21:11;;;;;;;14.70;9.10;;;9.40;99.90;;;;;;5069484;28;20264;-71
2021/03/25 06:24:07;;;;;;;11.77;9.23;;;9.50;99.90;;;;;;5060944;28;20209;-72
2021/03/25 06:26:40;;;;;;;16.40;8.87;;;9.60;99.90;;;;;;5048351;28;20217;-73
2021/03/25 06:29:13;;;;;;;13.63;9.27;;;9.60;99.90;;;;;;5069357;28;20202;-73
2021/03/25 06:31:47;;;;;;;13.97;10.63;;;9.60;99.90;;;;;;5070377;28;20209;-75
2021/03/25 06:34:20;;;;;;;13.47;9.97;;;9.70;99.90;;;;;;5069754;28;20205;-73
2021/03/25 06:37:14;;;;;;;15.57;10.30;;;9.70;99.90;;;;;;5070273;28;20285;-71
2021/03/25 06:39:46;;;;;;;13.37;10.83;;;9.70;99.90;;;;;;5070234;28;20210;-73
2021/03/25 06:42:22;;;;;;;25.43;10.40;;;9.80;99.90;;;;;;5069833;28;20198;-72
2021/03/25 06:44:53;;;;;;;16.17;9.40;;;9.70;99.90;;;;;;5069930;28;20209;-73
2021/03/25 06:47:45;;;;;;;15.47;9.17;;;9.70;99.90;;;;;;5069667;28;20222;-73
2021/03/25 06:50:16;;;;;;;12.70;10.27;;;9.80;99.90;;;;;;5069397;28;20198;-74
2021/03/25 06:52:43;;;;;;;17.30;9.10;;;9.80;99.90;;;;;;5070288;28;20268;-73
2021/03/25 06:55:16;;;;;;;12.77;8.97;;;9.90;99.90;;;;;;5069414;28;20217;-73
2021/03/25 06:57:47;;;;;;;12.87;8.97;;;9.90;99.90;;;;;;5069933;28;20234;-73
2021/03/25 07:00:17;;;;;;;16.03;9.80;;;9.90;99.90;;;;;;5069560;28;20267;-73
2021/03/25 07:02:46;;;;;;;12.50;8.87;;;9.90;99.90;;;;;;5070042;28;20295;-72
2021/03/25 07:05:19;;;;;;;15.20;9.67;;;10.00;99.90;;;;;;5069344;28;20585;-73
2021/03/25 07:07:48;;;;;;;17.83;10.77;;;10.00;99.90;;;;;;5070009;28;20229;-73
2021/03/25 07:10:17;;;;;;;18.57;11.20;;;10.00;99.90;;;;;;5069489;28;20210;-73
2021/03/25 07:12:48;;;;;;;14.27;10.40;;;10.10;99.90;;;;;;5069877;28;20226;-73
2021/03/25 07:15:22;;;;;;;11.50;10.33;;;10.20;99.90;;;;;;5069571;28;20210;-72
2021/03/25 07:17:49;;;;;;;17.37;10.73;;;10.10;99.90;;;;;;5069733;28;20229;-72
2021/03/25 07:20:23;;;;;;;13.00;9.03;;;10.00;99.90;;;;;;5069377;28;20221;-72
2021/03/25 07:23:01;;;;;;;18.00;10.00;;;10.10;99.90;;;;;;5069714;28;20206;-72
2021/03/25 07:25:29;;;;;;;14.93;9.37;;;10.10;99.90;;;;;;5069697;28;20214;-69
2021/03/25 07:27:58;;;;;;;13.63;8.97;;;10.10;99.90;;;;;;5069852;28;20206;-70
2021/03/25 07:30:26;;;;;;;20.20;11.80;;;10.00;99.90;;;;;;5069415;28;20222;-73
2021/03/25 07:32:55;;;;;;;12.97;9.07;;;10.00;99.90;;;;;;5071128;28;20217;-73
2021/03/25 07:35:33;;;;;;;17.13;10.77;;;10.00;99.90;;;;;;5073096;28;20263;-72
2021/03/25 07:38:03;;;;;;;20.07;10.23;;;10.00;99.90;;;;;;5073455;28;20233;-72
2021/03/25 07:40:34;;;;;;;10.33;8.90;;;10.10;99.90;;;;;;5073380;28;20673;-72
2021/03/25 07:43:16;;;;;;;13.97;9.70;;;10.00;99.90;;;;;;5073710;28;20205;-72
2021/03/25 07:45:43;;;;;;;12.23;9.93;;;10.00;99.90;;;;;;5061610;28;20576;-72
2021/03/25 07:48:22;;;;;;;12.60;9.83;;;10.00;99.90;;;;;;5072493;28;20222;-72
2021/03/25 07:50:50;;;;;;;19.60;13.10;;;10.10;99.90;;;;;;5072985;28;20206;-71
2021/03/25 07:53:21;;;;;;;17.03;10.77;;;10.10;99.90;;;;;;5072572;28;20206;-73
2021/03/25 07:55:48;;;;;;;14.60;10.27;;;10.20;99.90;;;;;;5072679;28;20209;-71
2021/03/25 07:58:34;;;;;;;14.00;9.10;;;10.30;99.90;;;;;;5072595;28;20248;-70
2021/03/25 08:01:09;;;;;;;13.83;9.23;;;10.50;99.90;;;;;;5073308;28;20202;-70
2021/03/25 08:03:48;;;;;;;12.83;9.47;;;10.50;99.90;;;;;;5072738;28;20282;-71
2021/03/25 08:06:22;;;;;;;12.57;9.87;;;10.50;99.90;;;;;;5072528;28;20213;-73
2021/03/25 08:09:00;;;;;;;17.13;10.67;;;10.60;99.90;;;;;;5072613;28;20198;-71
2021/03/25 08:11:26;;;;;;;13.40;9.47;;;10.70;99.90;;;;;;5072744;28;20297;-69
2021/03/25 08:13:58;;;;;;;16.03;9.37;;;10.70;99.90;;;;;;5072492;28;20256;-73
2021/03/25 08:16:27;;;;;;;18.93;11.47;;;10.70;99.90;;;;;;5072339;28;20275;-73
2021/03/25 08:19:21;;;;;;;11.87;9.80;;;10.70;99.90;;;;;;5072224;28;20230;-76
2021/03/25 08:22:18;;;;;;;20.83;12.63;;;10.60;99.90;;;;;;5072599;28;20263;-74
2021/03/25 08:25:20;;;;;;;18.77;10.60;;;10.50;99.90;;;;;;5068736;28;20214;-74
2021/03/25 08:28:03;;;;;;;17.07;12.00;;;10.70;99.90;;;;;;5070439;28;20205;-74
2021/03/25 08:30:49;;;;;;;15.87;11.47;;;10.90;99.90;;;;;;5073009;28;20673;-74
2021/03/25 08:33:27;;;;;;;17.80;10.57;;;11.00;99.90;;;;;;5071914;28;20206;-72
2021/03/25 08:36:02;;;;;;;14.63;10.63;;;11.00;99.90;;;;;;5072052;28;20209;-73
2021/03/25 08:38:40;;;;;;;12.57;10.40;;;11.20;99.90;;;;;;5072028;28;20229;-72
2021/03/25 08:41:12;;;;;;;11.90;9.47;;;11.30;99.90;;;;;;5069671;28;20198;-71
2021/03/25 08:43:44;;;;;;;11.47;10.20;;;11.40;99.90;;;;;;5069982;28;20199;-70
2021/03/25 08:46:17;;;;;;;15.30;10.73;;;11.50;99.90;;;;;;5071385;28;20795;-71
2021/03/25 08:48:51;;;;;;;19.60;11.53;;;11.60;99.90;;;;;;5069178;28;20194;-71
2021/03/25 08:51:22;;;;;;;16.03;10.63;;;11.60;99.90;;;;;;5071125;28;20201;-72
2021/03/25 08:53:53;;;;;;;13.30;9.90;;;11.70;99.90;;;;;;5071601;28;20260;-70
2021/03/25 08:56:34;;;;;;;12.97;11.63;;;12.00;99.90;;;;;;5071299;28;20202;-72
2021/03/25 08:59:06;;;;;;;17.00;9.20;;;12.20;99.90;;;;;;5071502;28;20265;-71
2021/03/25 09:01:41;;;;;;;16.30;9.67;;;12.30;99.90;;;;;;5071532;28;20259;-71
2021/03/25 09:04:11;;;;;;;8.93;7.47;;;12.40;99.90;;;;;;5070935;28;20204;-71
2021/03/25 09:06:41;;;;;;;9.57;7.70;;;12.50;99.90;;;;;;5069437;28;20202;-71
2021/03/25 09:09:40;;;;;;;19.97;8.63;;;12.60;99.90;;;;;;5071724;28;20202;-71
2021/03/25 09:12:17;;;;;;;12.53;7.73;;;12.60;99.90;;;;;;5070819;28;20206;-72
2021/03/25 09:14:43;;;;;;;9.33;8.30;;;13.00;99.90;;;;;;5071527;28;20217;-72
2021/03/25 09:17:16;;;;;;;8.67;6.97;;;13.20;99.90;;;;;;5070445;28;20229;-71
2021/03/25 09:19:47;;;;;;;16.07;7.73;;;13.50;99.90;;;;;;5071499;28;20267;-72
2021/03/25 09:22:51;;;;;;;10.00;7.47;;;13.50;99.90;;;;;;5069132;28;20201;-72
2021/03/25 09:25:36;;;;;;;11.57;8.03;;;13.80;99.90;;;;;;5068814;28;20260;-73
2021/03/25 09:28:06;;;;;;;13.25;8.75;;;14.30;99.90;;;;;;5067985;28;20210;-73
2021/03/25 09:30:37;;;;;;;10.63;8.07;;;14.40;99.90;;;;;;5070287;28;20674;-72
2021/03/25 09:33:44;;;;;;;17.20;7.57;;;14.10;99.90;;;;;;5069786;28;20194;-73
2021/03/25 09:36:40;;;;;;;8.73;7.88;;;14.20;99.90;;;;;;5067401;28;20210;-74
2021/03/25 09:39:29;;;;;;;11.88;8.35;;;14.10;99.90;;;;;;5069688;28;20240;-71
2021/03/25 09:41:57;;;;;;;13.43;8.27;;;14.40;99.90;;;;;;5068931;28;20194;-73
2021/03/25 09:44:38;;;;;;;8.35;7.18;;;14.90;99.90;;;;;;5069141;28;20210;-71
2021/03/25 09:47:28;;;;;;;13.77;8.55;;;15.30;99.90;;;;;;5069382;28;20487;-72
2021/03/25 09:50:16;;;;;;;12.23;8.65;;;15.60;99.90;;;;;;5070465;28;20210;-73
2021/03/25 09:52:46;;;;;;;13.50;8.60;;;16.40;99.90;;;;;;5069730;28;20207;-72
2021/03/25 09:55:20;;;;;;;11.40;8.63;;;16.60;99.90;;;;;;5069800;28;20702;-73
2021/03/25 09:57:47;;;;;;;9.40;7.10;;;16.90;99.90;;;;;;5070398;28;20226;-72
2021/03/25 10:00:52;;;;;;;13.70;7.47;;;17.30;99.90;;;;;;5070228;28;20236;-73
2021/03/25 10:03:38;;;;;;;11.45;6.80;;;18.60;99.90;;;;;;5062611;28;20643;-72
2021/03/25 10:06:44;;;;;;;7.93;5.47;;;20.50;99.90;;;;;;5069868;28;20255;-72
2021/03/25 10:09:11;;;;;;;8.93;5.38;;;20.20;99.90;;;;;;5069049;28;20210;-72
2021/03/25 10:11:47;;;;;;;7.63;5.28;;;22.90;99.90;;;;;;5070440;28;20210;-73
2021/03/25 10:14:54;;;;;;;6.28;5.07;;;23.60;99.90;;;;;;5069215;28;20214;-74
2021/03/25 10:17:44;;;;;;;10.13;5.95;;;20.50;99.90;;;;;;5061553;28;20592;-72
2021/03/25 10:20:13;;;;;;;6.28;4.35;;;19.00;99.90;;;;;;5068104;28;20202;-72
2021/03/25 10:22:41;;;;;;;7.43;5.47;;;16.50;99.90;;;;;;5068589;28;20210;-72
2021/03/25 10:25:08;;;;;;;10.52;4.57;;;15.30;99.90;;;;;;5069716;28;20198;-72
2021/03/25 10:27:42;;;;;;;8.18;4.70;;;16.20;99.90;;;;;;5070227;28;20210;-72
2021/03/25 10:30:25;;;;;;;5.45;4.60;;;15.50;99.90;;;;;;5070012;28;20213;-72
2021/03/25 10:32:53;;;;;;;4.13;3.30;;;15.30;99.90;;;;;;5069417;28;20533;-73
2021/03/25 10:35:26;;;;;;;4.28;3.15;;;14.70;99.90;;;;;;5069678;28;20214;-72
2021/03/25 10:37:57;;;;;;;3.90;3.47;;;14.70;99.90;;;;;;5070152;28;20229;-72
2021/03/25 10:40:28;;;;;;;8.60;4.28;;;15.40;99.90;;;;;;5070033;28;20572;-72
2021/03/25 10:42:58;;;;;;;8.57;3.85;;;15.50;99.90;;;;;;5070312;28;20209;-72
2021/03/25 10:45:29;;;;;;;4.03;3.35;;;15.80;99.90;;;;;;5069818;28;20212;-72
2021/03/25 10:47:59;;;;;;;5.32;3.55;;;16.30;99.90;;;;;;5069401;28;20218;-72
2021/03/25 10:50:33;;;;;;;5.88;3.75;;;16.50;99.90;;;;;;5069275;28;20210;-72
2021/03/25 10:53:04;;;;;;;3.13;2.83;;;16.70;99.90;;;;;;5068130;28;20198;-73
2021/03/25 10:55:38;;;;;;;4.55;2.97;;;16.90;99.90;;;;;;5070152;28;20205;-73
2021/03/25 10:58:06;;;;;;;3.85;3.45;;;16.40;99.90;;;;;;5069403;28;20218;-73
2021/03/25 11:00:35;;;;;;;9.02;4.05;;;16.10;99.90;;;;;;5068489;28;20207;-73
2021/03/25 11:03:17;;;;;;;4.07;3.65;;;15.70;99.90;;;;;;5069859;28;20206;-73
2021/03/25 11:05:52;;;;;;;8.35;4.10;;;15.90;99.90;;;;;;5070040;28;20206;-73
2021/03/25 11:08:32;;;;;;;5.35;3.50;;;16.00;99.90;;;;;;5071892;28;20554;-72
2021/03/25 11:11:01;;;;;;;3.72;3.40;;;16.40;99.90;;;;;;5063485;28;20202;-73
2021/03/25 11:13:29;;;;;;;7.05;3.50;;;16.50;99.90;;;;;;5067391;28;20206;-73
2021/03/25 11:15:59;;;;;;;7.60;3.45;;;15.90;99.90;;;;;;5073154;28;20619;-73
2021/03/25 11:18:31;;;;;;;7.68;3.67;;;15.70;99.90;;;;;;5072887;28;20241;-73
2021/03/25 11:20:58;;;;;;;5.18;3.60;;;15.50;99.90;;;;;;5073503;28;20202;-75
2021/03/25 11:23:27;;;;;;;4.38;3.22;;;15.00;99.90;;;;;;5072845;28;20213;-73
2021/03/25 11:25:55;;;;;;;7.70;3.10;;;14.70;99.90;;;;;;5073235;28;20569;-77
2021/03/25 11:28:22;;;;;;;8.70;3.72;;;15.00;99.90;;;;;;5072602;28;20320;-73
2021/03/25 11:30:52;;;;;;;5.80;3.13;;;15.00;99.90;;;;;;5071951;28;20202;-73
2021/03/25 11:33:33;;;;;;;3.95;3.03;;;15.20;99.90;;;;;;5072639;28;20236;-74
2021/03/25 11:36:01;;;;;;;3.60;2.70;;;15.70;99.90;;;;;;5073611;28;20202;-73
2021/03/25 11:38:34;;;;;;;5.03;3.65;;;16.10;99.90;;;;;;5071536;28;20230;-75
2021/03/25 11:41:04;;;;;;;3.92;2.72;;;15.40;99.90;;;;;;5073436;28;20689;-75
2021/03/25 11:43:50;;;;;;;5.85;3.15;;;15.00;99.90;;;;;;5072661;28;20202;-74
2021/03/25 11:46:29;;;;;;;4.03;2.92;;;15.00;99.90;;;;;;5063980;28;20625;-72
2021/03/25 11:49:06;;;;;;;3.65;2.97;;;15.20;99.90;;;;;;5069749;28;20202;-74
2021/03/25 11:51:34;;;;;;;5.50;2.65;;;15.90;99.90;;;;;;5072593;28;20206;-73
2021/03/25 11:54:17;;;;;;;6.72;3.53;;;17.70;99.90;;;;;;5072683;28;20442;-72
2021/03/25 11:56:49;;;;;;;3.55;3.05;;;17.00;99.90;;;;;;5070699;28;20260;-73
2021/03/25 11:59:28;;;;;;;5.60;3.67;;;16.70;99.90;;;;;;5070498;28;20232;-73
2021/03/25 12:02:29;;;;;;;9.35;2.90;;;16.70;99.90;;;;;;5070348;28;20206;-73
2021/03/25 12:04:56;;;;;;;8.00;3.60;;;17.20;99.90;;;;;;5066317;28;20582;-72
2021/03/25 12:07:24;;;;;;;4.82;3.15;;;16.90;99.90;;;;;;5072234;28;20216;-74
2021/03/25 12:10:05;;;;;;;6.25;3.45;;;16.80;99.90;;;;;;5072532;28;20267;-73
2021/03/25 12:12:32;;;;;;;5.97;3.50;;;16.40;99.90;;;;;;5072173;28;20670;-74
2021/03/25 12:14:59;;;;;;;7.03;3.22;;;16.30;99.90;;;;;;5072576;28;20213;-73
2021/03/25 12:17:26;;;;;;;18.50;13.95;;;15.90;99.90;;;;;;5071520;28;20206;-73
2021/03/25 12:19:53;;;;;;;17.70;10.88;;;15.50;99.90;;;;;;5071687;28;20301;-74
2021/03/25 12:22:25;;;;;;;3.88;3.33;;;15.10;99.90;;;;;;5070704;28;20213;-74
2021/03/25 12:24:53;;;;;;;3.88;2.70;;;15.30;99.90;;;;;;5072268;28;20315;-74
2021/03/25 12:27:22;;;;;;;9.90;8.77;;;15.10;99.90;;;;;;5071772;28;20301;-74
2021/03/25 12:29:50;;;;;;;3.50;2.22;;;15.60;99.90;;;;;;5072018;28;20264;-74
2021/03/25 12:32:21;;;;;;;5.38;2.50;;;15.90;99.90;;;;;;5071762;28;20681;-73
2021/03/25 12:34:47;;;;;;;4.35;1.92;;;16.00;99.90;;;;;;5071297;28;20206;-74
2021/03/25 12:37:15;;;;;;;4.07;2.53;;;15.70;99.90;;;;;;5071868;28;20252;-74
2021/03/25 12:39:41;;;;;;;4.95;2.20;;;15.50;99.90;;;;;;5072069;28;20744;-73
2021/03/25 12:42:08;;;;;;;4.65;2.50;;;15.70;99.90;;;;;;5071821;28;20662;-74
2021/03/25 12:44:36;;;;;;;6.88;2.38;;;16.40;99.90;;;;;;5071315;28;20334;-74
2021/03/25 12:47:05;;;;;;;3.00;2.50;;;16.20;99.90;;;;;;5071719;28;20246;-74
2021/03/25 12:49:32;;;;;;;4.47;3.33;;;15.50;99.90;;;;;;5072181;28;20202;-73
2021/03/25 12:51:58;;;;;;;2.95;2.30;;;15.70;99.90;;;;;;5071943;28;20246;-73
2021/03/25 12:54:25;;;;;;;2.58;1.80;;;16.10;99.90;;;;;;5061981;28;20215;-75
2021/03/25 12:56:57;;;;;;;2.67;2.40;;;15.70;99.90;;;;;;5071403;28;20715;-74
2021/03/25 12:59:25;;;;;;;3.35;2.45;;;15.50;99.90;;;;;;5070742;28;20275;-73
2021/03/25 13:01:53;;;;;;;3.00;2.05;;;15.90;99.90;;;;;;5071166;28;20292;-72
2021/03/25 13:04:20;;;;;;;6.25;2.70;;;15.90;99.90;;;;;;5069969;28;20225;-77
2021/03/25 13:06:47;;;;;;;9.75;3.20;;;15.70;99.90;;;;;;5071258;28;20217;-74
2021/03/25 13:09:13;;;;;;;2.75;2.28;;;15.30;99.90;;;;;;5070715;28;20206;-71
2021/03/25 13:11:40;;;;;;;4.78;2.75;;;15.00;99.90;;;;;;5071274;28;20263;-70
2021/03/25 13:14:06;;;;;;;6.45;3.08;;;14.70;99.90;;;;;;5070730;28;20575;-72